AAL256 KDCA-KPWM
Flight info
| Callsign | AAL256 |
|---|---|
| Flight time | N/A |
| Altitude | 33000 |
| Route | SOOKI6 SWANN BROSS Q419 RBV Q22 LLUND BDR SCOGS3 |
| Aircraft | A319/M-SDE3FGHIRWY/LB1 |
Departure
| Time | N/A |
|---|---|
| Airport | Ronald Reagan Washington National Airport (KDCA) |
Arrival
| Time | 2026-05-08 18:55 |
|---|---|
| Airport | Portland International Jetport (KPWM) |
| Time | Latitude | Longitude | Altitude | Speed | Heading |
|---|---|---|---|---|---|
| 2026-05-08 18:38 | 42.75191 | -70.59458 | 20964 ft | 408 kts | 18° |
| 2026-05-08 18:38 | 42.77739 | -70.57807 | 20420 ft | 403 kts | 19° |
| 2026-05-08 18:38 | 42.80256 | -70.56180 | 19898 ft | 399 kts | 19° |
| 2026-05-08 18:38 | 42.82753 | -70.54579 | 19372 ft | 394 kts | 19° |
| 2026-05-08 18:39 | 42.85227 | -70.53006 | 18827 ft | 391 kts | 19° |
| 2026-05-08 18:39 | 42.87689 | -70.51454 | 18283 ft | 388 kts | 19° |
| 2026-05-08 18:39 | 42.90124 | -70.49922 | 17677 ft | 384 kts | 20° |
| 2026-05-08 18:39 | 42.92542 | -70.48397 | 17144 ft | 380 kts | 20° |
| 2026-05-08 18:40 | 42.94893 | -70.46907 | 16988 ft | 364 kts | 20° |
| 2026-05-08 18:40 | 42.97143 | -70.45476 | 16839 ft | 350 kts | 20° |
| 2026-05-08 18:40 | 42.99307 | -70.44100 | 16707 ft | 337 kts | 19° |
| 2026-05-08 18:40 | 43.01395 | -70.42774 | 16484 ft | 328 kts | 20° |
| 2026-05-08 18:41 | 43.03379 | -70.41232 | 16113 ft | 328 kts | 27° |
| 2026-05-08 18:41 | 43.05296 | -70.39577 | 15709 ft | 325 kts | 27° |
| 2026-05-08 18:41 | 43.07196 | -70.37934 | 15193 ft | 321 kts | 26° |
| 2026-05-08 18:41 | 43.09074 | -70.36310 | 14553 ft | 318 kts | 26° |
| 2026-05-08 18:42 | 43.10963 | -70.34674 | 13944 ft | 315 kts | 26° |
| 2026-05-08 18:42 | 43.12781 | -70.33096 | 13328 ft | 312 kts | 26° |
| 2026-05-08 18:42 | 43.14630 | -70.31488 | 12661 ft | 310 kts | 26° |
| 2026-05-08 18:42 | 43.16440 | -70.29910 | 12008 ft | 307 kts | 27° |
| 2026-05-08 18:43 | 43.18239 | -70.28337 | 11367 ft | 305 kts | 27° |
| 2026-05-08 18:43 | 43.19998 | -70.26791 | 10764 ft | 303 kts | 28° |
| 2026-05-08 18:43 | 43.21791 | -70.25210 | 10157 ft | 302 kts | 28° |
| 2026-05-08 18:43 | 43.23545 | -70.23664 | 9617 ft | 298 kts | 29° |
| 2026-05-08 18:44 | 43.25278 | -70.22133 | 9248 ft | 295 kts | 28° |
| 2026-05-08 18:44 | 43.27006 | -70.20623 | 8913 ft | 292 kts | 28° |
| 2026-05-08 18:44 | 43.28716 | -70.19147 | 8594 ft | 291 kts | 28° |
| 2026-05-08 18:44 | 43.30436 | -70.17672 | 8264 ft | 290 kts | 28° |
| 2026-05-08 18:45 | 43.32141 | -70.16212 | 7947 ft | 288 kts | 28° |
| 2026-05-08 18:45 | 43.33855 | -70.14807 | 7606 ft | 286 kts | 26° |
| 2026-05-08 18:45 | 43.35575 | -70.13454 | 7281 ft | 284 kts | 26° |
| 2026-05-08 18:45 | 43.37288 | -70.12123 | 6958 ft | 283 kts | 25° |
| 2026-05-08 18:46 | 43.38995 | -70.10798 | 6641 ft | 281 kts | 25° |
| 2026-05-08 18:46 | 43.40695 | -70.09473 | 6317 ft | 280 kts | 25° |
| 2026-05-08 18:46 | 43.42387 | -70.08146 | 5986 ft | 279 kts | 26° |
| 2026-05-08 18:46 | 43.44063 | -70.06823 | 5668 ft | 277 kts | 26° |
| 2026-05-08 18:47 | 43.45730 | -70.05504 | 5354 ft | 276 kts | 26° |
| 2026-05-08 18:47 | 43.47390 | -70.04191 | 5048 ft | 274 kts | 26° |
| 2026-05-08 18:47 | 43.49039 | -70.02881 | 4735 ft | 273 kts | 26° |
| 2026-05-08 18:47 | 43.50685 | -70.01572 | 4419 ft | 272 kts | 26° |
| 2026-05-08 18:48 | 43.52322 | -70.00273 | 4105 ft | 271 kts | 26° |
| 2026-05-08 18:48 | 43.53954 | -69.98977 | 3796 ft | 270 kts | 26° |
| 2026-05-08 18:48 | 43.55555 | -69.97714 | 3692 ft | 259 kts | 24° |
| 2026-05-08 18:48 | 43.57209 | -69.97108 | 3602 ft | 237 kts | 353° |
| 2026-05-08 18:49 | 43.58714 | -69.97693 | 3490 ft | 216 kts | 324° |
| 2026-05-08 18:49 | 43.59732 | -69.99055 | 3392 ft | 197 kts | 301° |
| 2026-05-08 18:49 | 43.60463 | -70.00576 | 3305 ft | 184 kts | 301° |
| 2026-05-08 18:49 | 43.61149 | -70.01991 | 3251 ft | 171 kts | 301° |
| 2026-05-08 18:50 | 43.61803 | -70.03336 | 3140 ft | 164 kts | 301° |
| 2026-05-08 18:50 | 43.62424 | -70.04643 | 3052 ft | 162 kts | 297° |
| 2026-05-08 18:50 | 43.62763 | -70.06097 | 3005 ft | 159 kts | 276° |
| 2026-05-08 18:50 | 43.62868 | -70.07620 | 3006 ft | 160 kts | 275° |
| 2026-05-08 18:51 | 43.62975 | -70.09142 | 2970 ft | 160 kts | 275° |
| 2026-05-08 18:51 | 43.63082 | -70.10670 | 2822 ft | 159 kts | 275° |
| 2026-05-08 18:51 | 43.63152 | -70.11677 | 2699 ft | 159 kts | 275° |
| 2026-05-08 18:51 | 43.63293 | -70.13707 | 2423 ft | 159 kts | 275° |
| 2026-05-08 18:52 | 43.63362 | -70.14706 | 2284 ft | 158 kts | 275° |
| 2026-05-08 18:52 | 43.63466 | -70.16217 | 2067 ft | 158 kts | 275° |
| 2026-05-08 18:52 | 43.63571 | -70.17729 | 1853 ft | 159 kts | 275° |
| 2026-05-08 18:52 | 43.63674 | -70.19228 | 1634 ft | 153 kts | 275° |
| 2026-05-08 18:53 | 43.63770 | -70.20614 | 1447 ft | 136 kts | 275° |
| 2026-05-08 18:53 | 43.63855 | -70.21861 | 1253 ft | 127 kts | 275° |
| 2026-05-08 18:53 | 43.63937 | -70.23053 | 1081 ft | 123 kts | 275° |
| 2026-05-08 18:53 | 43.64012 | -70.24230 | 900 ft | 123 kts | 276° |
| 2026-05-08 18:54 | 43.64080 | -70.25419 | 712 ft | 122 kts | 278° |
| 2026-05-08 18:54 | 43.64166 | -70.26582 | 505 ft | 124 kts | 278° |
| 2026-05-08 18:54 | 43.64255 | -70.27803 | 393 ft | 128 kts | 276° |
| 2026-05-08 18:54 | 43.64337 | -70.29048 | 201 ft | 130 kts | 279° |
| 2026-05-08 18:55 | 43.64493 | -70.31220 | 75 ft | 78 kts | 275° |
| 2026-05-08 18:55 | 43.64532 | -70.31840 | 79 ft | 55 kts | 275° |
| 2026-05-08 18:55 | 43.64555 | -70.32079 | 90 ft | 10 kts | 300° |
| 2026-05-08 18:56 | 43.64599 | -70.32095 | 89 ft | 0 kts | 1° |
| 2026-05-08 18:56 | 43.64619 | -70.32093 | 88 ft | 7 kts | 5° |
| 2026-05-08 18:56 | 43.64658 | -70.32024 | 85 ft | 12 kts | 93° |
| 2026-05-08 18:56 | 43.64649 | -70.31888 | 84 ft | 16 kts | 95° |
| 2026-05-08 18:57 | 43.64638 | -70.31720 | 81 ft | 19 kts | 94° |
| 2026-05-08 18:57 | 43.64625 | -70.31521 | 79 ft | 21 kts | 96° |
| 2026-05-08 18:57 | 43.64617 | -70.31404 | 71 ft | 8 kts | 94° |
| 2026-05-08 18:57 | 43.64640 | -70.31345 | 75 ft | 8 kts | 39° |
| 2026-05-08 18:58 | 43.64689 | -70.31353 | 70 ft | 7 kts | 330° |
| 2026-05-08 18:58 | 43.64721 | -70.31316 | 75 ft | 5 kts | 62° |
| 2026-05-08 18:58 | 43.64733 | -70.31283 | 64 ft | 0 kts | 64° |